sensor_id;sensor_type;location;lat;lon;timestamp;pressure;altitude;pressure_sealevel;temperature;humidity
52319;BME280;38258;51.148;14.068;2023-02-15T00:00:54;99784.97;;;-0.62;100.00
52319;BME280;38258;51.148;14.068;2023-02-15T00:03:30;99784.72;;;-0.68;100.00
52319;BME280;38258;51.148;14.068;2023-02-15T00:05:57;99784.06;;;-0.64;100.00
52319;BME280;38258;51.148;14.068;2023-02-15T00:08:24;99785.09;;;-0.59;100.00
52319;BME280;38258;51.148;14.068;2023-02-15T00:10:51;99788.94;;;-0.70;100.00
52319;BME280;38258;51.148;14.068;2023-02-15T00:13:18;99776.03;;;-0.72;100.00
52319;BME280;38258;51.148;14.068;2023-02-15T00:15:45;99781.34;;;-0.67;100.00
52319;BME280;38258;51.148;14.068;2023-02-15T00:18:14;99784.59;;;-0.71;100.00
52319;BME280;38258;51.148;14.068;2023-02-15T00:20:40;99757.72;;;-0.79;100.00
52319;BME280;38258;51.148;14.068;2023-02-15T00:23:07;99775.22;;;-0.70;100.00
52319;BME280;38258;51.148;14.068;2023-02-15T00:25:34;99772.75;;;-0.67;100.00
52319;BME280;38258;51.148;14.068;2023-02-15T00:28:01;99766.81;;;-0.66;100.00
52319;BME280;38258;51.148;14.068;2023-02-15T00:30:28;99766.53;;;-0.73;100.00
52319;BME280;38258;51.148;14.068;2023-02-15T00:32:55;99768.38;;;-0.70;100.00
52319;BME280;38258;51.148;14.068;2023-02-15T00:35:23;99768.25;;;-0.73;100.00
52319;BME280;38258;51.148;14.068;2023-02-15T00:37:50;99758.69;;;-0.77;100.00
52319;BME280;38258;51.148;14.068;2023-02-15T00:40:18;99769.13;;;-0.73;100.00
52319;BME280;38258;51.148;14.068;2023-02-15T00:42:44;99769.81;;;-0.77;100.00
52319;BME280;38258;51.148;14.068;2023-02-15T00:45:11;99760.28;;;-0.79;100.00
52319;BME280;38258;51.148;14.068;2023-02-15T00:47:38;99771.47;;;-0.79;100.00
52319;BME280;38258;51.148;14.068;2023-02-15T00:50:06;99761.00;;;-0.83;100.00
52319;BME280;38258;51.148;14.068;2023-02-15T00:52:34;99763.69;;;-0.80;100.00
52319;BME280;38258;51.148;14.068;2023-02-15T00:55:02;99749.97;;;-0.81;100.00
52319;BME280;38258;51.148;14.068;2023-02-15T00:57:29;99750.69;;;-0.85;100.00
52319;BME280;38258;51.148;14.068;2023-02-15T00:59:56;99760.13;;;-0.84;100.00
52319;BME280;38258;51.148;14.068;2023-02-15T01:02:22;99745.69;;;-0.80;100.00
52319;BME280;38258;51.148;14.068;2023-02-15T01:04:49;99744.94;;;-0.78;100.00
52319;BME280;38258;51.148;14.068;2023-02-15T01:07:16;99726.59;;;-0.87;100.00
52319;BME280;38258;51.148;14.068;2023-02-15T01:09:44;99741.63;;;-0.75;100.00
52319;BME280;38258;51.148;14.068;2023-02-15T01:12:11;99748.97;;;-0.84;100.00
52319;BME280;38258;51.148;14.068;2023-02-15T01:14:38;99678.81;;;-1.27;100.00
52319;BME280;38258;51.148;14.068;2023-02-15T01:17:20;99741.06;;;-0.89;100.00
52319;BME280;38258;51.148;14.068;2023-02-15T01:20:16;99751.50;;;-0.86;100.00
52319;BME280;38258;51.148;14.068;2023-02-15T01:22:53;99630.50;;;-1.59;100.00
52319;BME280;38258;51.148;14.068;2023-02-15T01:25:44;99639.50;;;-1.48;100.00
52319;BME280;38258;51.148;14.068;2023-02-15T01:28:20;99537.25;;;-2.23;100.00
52319;BME280;38258;51.148;14.068;2023-02-15T01:30:53;99652.69;;;-1.38;100.00
52319;BME280;38258;51.148;14.068;2023-02-15T01:33:24;99756.69;;;-0.84;100.00
52319;BME280;38258;51.148;14.068;2023-02-15T01:35:56;99695.69;;;-1.11;100.00
52319;BME280;38258;51.148;14.068;2023-02-15T01:38:30;99623.59;;;-1.60;100.00
52319;BME280;38258;51.148;14.068;2023-02-15T01:41:04;99760.06;;;-0.86;100.00
52319;BME280;38258;51.148;14.068;2023-02-15T01:43:54;99654.59;;;-1.34;100.00
52319;BME280;38258;51.148;14.068;2023-02-15T01:46:28;99531.47;;;-2.19;100.00
52319;BME280;38258;51.148;14.068;2023-02-15T01:49:16;99648.03;;;-1.26;100.00
52319;BME280;38258;51.148;14.068;2023-02-15T01:51:50;99647.81;;;-1.32;100.00
52319;BME280;38258;51.148;14.068;2023-02-15T01:54:41;99670.03;;;-1.33;100.00
52319;BME280;38258;51.148;14.068;2023-02-15T01:57:27;99547.22;;;-2.10;100.00
52319;BME280;38258;51.148;14.068;2023-02-15T02:00:16;99540.41;;;-2.09;100.00
52319;BME280;38258;51.148;14.068;2023-02-15T02:02:54;99671.78;;;-1.32;100.00
52319;BME280;38258;51.148;14.068;2023-02-15T02:05:30;99579.06;;;-1.62;100.00
52319;BME280;38258;51.148;14.068;2023-02-15T02:08:03;99712.28;;;-1.03;100.00
52319;BME280;38258;51.148;14.068;2023-02-15T02:10:35;99557.53;;;-1.87;100.00
52319;BME280;38258;51.148;14.068;2023-02-15T02:13:21;99471.50;;;-2.44;100.00
52319;BME280;38258;51.148;14.068;2023-02-15T02:16:15;99589.44;;;-1.59;100.00
52319;BME280;38258;51.148;14.068;2023-02-15T02:18:57;99502.34;;;-2.21;100.00
52319;BME280;38258;51.148;14.068;2023-02-15T02:22:12;99688.34;;;-1.02;100.00
52319;BME280;38258;51.148;14.068;2023-02-15T02:28:20;99619.28;;;-1.40;100.00
52319;BME280;38258;51.148;14.068;2023-02-15T02:31:22;99448.53;;;-2.43;100.00
52319;BME280;38258;51.148;14.068;2023-02-15T02:34:07;99594.94;;;-1.50;100.00
52319;BME280;38258;51.148;14.068;2023-02-15T02:36:59;99587.38;;;-1.47;100.00
52319;BME280;38258;51.148;14.068;2023-02-15T02:40:02;99594.88;;;-1.51;100.00
52319;BME280;38258;51.148;14.068;2023-02-15T02:42:41;99682.66;;;-1.16;100.00
52319;BME280;38258;51.148;14.068;2023-02-15T02:45:15;99515.31;;;-1.95;100.00
52319;BME280;38258;51.148;14.068;2023-02-15T02:47:55;99473.56;;;-2.14;100.00
52319;BME280;38258;51.148;14.068;2023-02-15T02:50:38;99541.25;;;-1.88;100.00
52319;BME280;38258;51.148;14.068;2023-02-15T02:53:20;99535.28;;;-1.88;100.00
52319;BME280;38258;51.148;14.068;2023-02-15T02:56:08;99471.38;;;-2.26;100.00
52319;BME280;38258;51.148;14.068;2023-02-15T02:58:48;99425.56;;;-2.39;100.00
52319;BME280;38258;51.148;14.068;2023-02-15T03:01:32;99587.88;;;-1.55;100.00
52319;BME280;38258;51.148;14.068;2023-02-15T03:04:04;99579.06;;;-1.62;100.00
52319;BME280;38258;51.148;14.068;2023-02-15T03:06:42;99594.31;;;-1.65;100.00
52319;BME280;38258;51.148;14.068;2023-02-15T03:09:23;99560.66;;;-1.73;100.00
52319;BME280;38258;51.148;14.068;2023-02-15T03:12:04;99656.97;;;-1.16;100.00
52319;BME280;38258;51.148;14.068;2023-02-15T03:14:40;99595.81;;;-1.49;100.00
52319;BME280;38258;51.148;14.068;2023-02-15T03:17:11;99569.94;;;-1.77;100.00
52319;BME280;38258;51.148;14.068;2023-02-15T03:19:40;99643.44;;;-1.35;100.00
52319;BME280;38258;51.148;14.068;2023-02-15T03:22:13;99533.03;;;-2.02;100.00
52319;BME280;38258;51.148;14.068;2023-02-15T03:24:44;99481.00;;;-2.42;100.00
52319;BME280;38258;51.148;14.068;2023-02-15T03:27:18;99536.28;;;-2.06;100.00
52319;BME280;38258;51.148;14.068;2023-02-15T03:29:53;99552.72;;;-2.01;100.00
52319;BME280;38258;51.148;14.068;2023-02-15T03:32:29;99674.97;;;-1.37;100.00
52319;BME280;38258;51.148;14.068;2023-02-15T03:34:59;99575.25;;;-1.93;100.00
52319;BME280;38258;51.148;14.068;2023-02-15T03:37:32;99545.97;;;-2.20;100.00
52319;BME280;38258;51.148;14.068;2023-02-15T03:40:08;99486.75;;;-2.47;100.00
52319;BME280;38258;51.148;14.068;2023-02-15T03:42:56;99683.88;;;-1.50;100.00
52319;BME280;38258;51.148;14.068;2023-02-15T03:45:30;99576.19;;;-2.32;100.00
52319;BME280;38258;51.148;14.068;2023-02-15T03:47:59;99689.69;;;-1.76;100.00
52319;BME280;38258;51.148;14.068;2023-02-15T03:50:36;99443.38;;;-3.24;100.00
52319;BME280;38258;51.148;14.068;2023-02-15T03:53:24;99570.63;;;-2.43;100.00
52319;BME280;38258;51.148;14.068;2023-02-15T03:55:54;99631.56;;;-2.16;100.00
52319;BME280;38258;51.148;14.068;2023-02-15T03:58:23;99504.16;;;-2.60;100.00
52319;BME280;38258;51.148;14.068;2023-02-15T04:01:10;99666.09;;;-1.46;100.00
52319;BME280;38258;51.148;14.068;2023-02-15T04:04:01;99630.81;;;-1.73;100.00
52319;BME280;38258;51.148;14.068;2023-02-15T04:06:38;99493.16;;;-2.78;100.00
52319;BME280;38258;51.148;14.068;2023-02-15T04:09:06;99575.09;;;-2.18;100.00
52319;BME280;38258;51.148;14.068;2023-02-15T04:11:50;99614.50;;;-1.94;100.00
52319;BME280;38258;51.148;14.068;2023-02-15T04:14:17;99586.16;;;-2.19;100.00
52319;BME280;38258;51.148;14.068;2023-02-15T04:17:04;99554.50;;;-2.40;100.00
52319;BME280;38258;51.148;14.068;2023-02-15T04:19:33;99484.69;;;-2.76;100.00
52319;BME280;38258;51.148;14.068;2023-02-15T04:22:20;99554.09;;;-2.50;100.00
52319;BME280;38258;51.148;14.068;2023-02-15T04:25:05;99672.38;;;-1.80;100.00
52319;BME280;38258;51.148;14.068;2023-02-15T04:27:39;99499.84;;;-2.80;100.00
52319;BME280;38258;51.148;14.068;2023-02-15T04:30:07;99611.19;;;-2.13;100.00
52319;BME280;38258;51.148;14.068;2023-02-15T04:32:34;99618.59;;;-2.00;100.00
52319;BME280;38258;51.148;14.068;2023-02-15T04:35:09;99571.16;;;-2.31;100.00
52319;BME280;38258;51.148;14.068;2023-02-15T04:37:39;99534.22;;;-2.56;100.00
52319;BME280;38258;51.148;14.068;2023-02-15T04:40:08;99491.88;;;-3.08;100.00
52319;BME280;38258;51.148;14.068;2023-02-15T04:42:37;99589.25;;;-2.47;100.00
52319;BME280;38258;51.148;14.068;2023-02-15T04:45:05;99658.09;;;-1.94;100.00
52319;BME280;38258;51.148;14.068;2023-02-15T04:47:32;99531.94;;;-2.69;100.00
52319;BME280;38258;51.148;14.068;2023-02-15T04:49:59;99474.56;;;-3.14;100.00
52319;BME280;38258;51.148;14.068;2023-02-15T04:52:31;99658.81;;;-2.18;100.00
52319;BME280;38258;51.148;14.068;2023-02-15T04:55:13;99578.94;;;-2.68;100.00
52319;BME280;38258;51.148;14.068;2023-02-15T04:57:42;99474.50;;;-3.15;100.00
52319;BME280;38258;51.148;14.068;2023-02-15T05:00:11;99440.47;;;-3.32;100.00
52319;BME280;38258;51.148;14.068;2023-02-15T05:02:38;99451.19;;;-3.41;100.00
52319;BME280;38258;51.148;14.068;2023-02-15T05:05:05;99503.13;;;-3.04;100.00
52319;BME280;38258;51.148;14.068;2023-02-15T05:07:32;99596.50;;;-2.37;100.00
52319;BME280;38258;51.148;14.068;2023-02-15T05:09:59;99529.91;;;-2.57;100.00
52319;BME280;38258;51.148;14.068;2023-02-15T05:12:28;99478.06;;;-2.92;100.00
52319;BME280;38258;51.148;14.068;2023-02-15T05:14:55;99632.13;;;-1.82;100.00
52319;BME280;38258;51.148;14.068;2023-02-15T05:17:22;99513.03;;;-2.51;100.00
52319;BME280;38258;51.148;14.068;2023-02-15T05:19:52;99392.53;;;-3.17;100.00
52319;BME280;38258;51.148;14.068;2023-02-15T05:22:19;99531.88;;;-2.30;100.00
52319;BME280;38258;51.148;14.068;2023-02-15T05:24:46;99552.59;;;-2.25;100.00
52319;BME280;38258;51.148;14.068;2023-02-15T05:27:36;99461.94;;;-2.89;100.00
52319;BME280;38258;51.148;14.068;2023-02-15T05:30:21;99508.56;;;-2.57;100.00
52319;BME280;38258;51.148;14.068;2023-02-15T05:32:49;99535.75;;;-2.39;100.00
52319;BME280;38258;51.148;14.068;2023-02-15T05:35:16;99453.53;;;-2.87;100.00
52319;BME280;38258;51.148;14.068;2023-02-15T05:37:43;99495.06;;;-2.73;100.00
52319;BME280;38258;51.148;14.068;2023-02-15T05:40:10;99485.44;;;-2.59;100.00
52319;BME280;38258;51.148;14.068;2023-02-15T05:42:38;99625.56;;;-1.76;100.00
52319;BME280;38258;51.148;14.068;2023-02-15T05:45:06;99519.63;;;-2.37;100.00
52319;BME280;38258;51.148;14.068;2023-02-15T05:47:33;99472.09;;;-2.71;100.00
52319;BME280;38258;51.148;14.068;2023-02-15T05:50:00;99532.63;;;-2.32;100.00
52319;BME280;38258;51.148;14.068;2023-02-15T05:52:29;99412.31;;;-2.93;100.00
52319;BME280;38258;51.148;14.068;2023-02-15T05:54:58;99478.47;;;-2.61;100.00
52319;BME280;38258;51.148;14.068;2023-02-15T05:57:25;99613.53;;;-1.77;100.00
52319;BME280;38258;51.148;14.068;2023-02-15T05:59:53;99622.22;;;-1.73;100.00
52319;BME280;38258;51.148;14.068;2023-02-15T06:02:20;99467.53;;;-2.78;100.00
52319;BME280;38258;51.148;14.068;2023-02-15T06:04:47;99444.09;;;-2.88;100.00
52319;BME280;38258;51.148;14.068;2023-02-15T06:07:14;99464.72;;;-2.63;100.00
52319;BME280;38258;51.148;14.068;2023-02-15T06:09:40;99619.97;;;-1.65;100.00
52319;BME280;38258;51.148;14.068;2023-02-15T06:12:07;99412.75;;;-3.02;100.00
52319;BME280;38258;51.148;14.068;2023-02-15T06:14:34;99624.97;;;-1.68;100.00
52319;BME280;38258;51.148;14.068;2023-02-15T06:17:02;99620.84;;;-1.65;100.00
52319;BME280;38258;51.148;14.068;2023-02-15T06:19:31;99423.81;;;-3.03;100.00
52319;BME280;38258;51.148;14.068;2023-02-15T06:21:59;99638.88;;;-1.63;100.00
52319;BME280;38258;51.148;14.068;2023-02-15T06:24:30;99406.22;;;-2.95;100.00
52319;BME280;38258;51.148;14.068;2023-02-15T06:26:57;99527.81;;;-2.24;100.00
52319;BME280;38258;51.148;14.068;2023-02-15T06:29:26;99485.22;;;-2.63;100.00
52319;BME280;38258;51.148;14.068;2023-02-15T06:31:56;99578.56;;;-1.96;100.00
52319;BME280;38258;51.148;14.068;2023-02-15T06:34:29;99417.66;;;-2.87;100.00
52319;BME280;38258;51.148;14.068;2023-02-15T06:37:04;99623.34;;;-1.66;100.00
52319;BME280;38258;51.148;14.068;2023-02-15T06:39:33;99503.91;;;-2.25;100.00
52319;BME280;38258;51.148;14.068;2023-02-15T06:42:00;99527.47;;;-2.13;100.00
52319;BME280;38258;51.148;14.068;2023-02-15T06:44:30;99471.25;;;-2.50;100.00
52319;BME280;38258;51.148;14.068;2023-02-15T06:47:03;99438.00;;;-2.70;100.00
52319;BME280;38258;51.148;14.068;2023-02-15T06:49:34;99369.41;;;-2.99;100.00
52319;BME280;38258;51.148;14.068;2023-02-15T06:52:01;99484.88;;;-2.30;100.00
52319;BME280;38258;51.148;14.068;2023-02-15T06:54:31;99513.13;;;-2.07;100.00
52319;BME280;38258;51.148;14.068;2023-02-15T06:56:58;99487.94;;;-2.18;100.00
52319;BME280;38258;51.148;14.068;2023-02-15T06:59:31;99469.13;;;-2.39;100.00
52319;BME280;38258;51.148;14.068;2023-02-15T07:01:59;99539.22;;;-1.96;100.00
52319;BME280;38258;51.148;14.068;2023-02-15T07:04:27;99487.94;;;-2.18;100.00
52319;BME280;38258;51.148;14.068;2023-02-15T07:06:57;99552.31;;;-1.67;100.00
52319;BME280;38258;51.148;14.068;2023-02-15T07:09:24;99521.13;;;-1.78;100.00
52319;BME280;38258;51.148;14.068;2023-02-15T07:11:53;99545.44;;;-1.68;100.00
52319;BME280;38258;51.148;14.068;2023-02-15T07:14:40;99596.81;;;-1.23;100.00
52319;BME280;38258;51.148;14.068;2023-02-15T07:17:07;99593.38;;;-1.23;100.00
52319;BME280;38258;51.148;14.068;2023-02-15T07:19:34;99597.88;;;-1.18;100.00
52319;BME280;38258;51.148;14.068;2023-02-15T07:22:02;99582.69;;;-1.11;100.00
52319;BME280;38258;51.148;14.068;2023-02-15T07:24:29;99590.59;;;-1.07;100.00
52319;BME280;38258;51.148;14.068;2023-02-15T07:26:55;99574.97;;;-1.13;100.00
52319;BME280;38258;51.148;14.068;2023-02-15T07:29:23;99588.19;;;-1.02;100.00
52319;BME280;38258;51.148;14.068;2023-02-15T07:31:50;99564.97;;;-1.05;100.00
52319;BME280;38258;51.148;14.068;2023-02-15T07:34:17;99588.28;;;-0.76;100.00
52319;BME280;38258;51.148;14.068;2023-02-15T07:36:44;99585.22;;;-0.66;100.00
52319;BME280;38258;51.148;14.068;2023-02-15T07:39:12;99593.34;;;-0.55;100.00
52319;BME280;38258;51.148;14.068;2023-02-15T07:41:39;99590.81;;;-0.53;100.00
52319;BME280;38258;51.148;14.068;2023-02-15T07:44:12;99593.72;;;-0.44;100.00
52319;BME280;38258;51.148;14.068;2023-02-15T07:46:39;99588.28;;;-0.27;100.00
52319;BME280;38258;51.148;14.068;2023-02-15T07:49:06;99586.03;;;-0.18;100.00
52319;BME280;38258;51.148;14.068;2023-02-15T07:51:33;99582.38;;;-0.25;100.00
52319;BME280;38258;51.148;14.068;2023-02-15T07:54:00;99582.13;;;-0.07;100.00
52319;BME280;38258;51.148;14.068;2023-02-15T07:56:28;99584.84;;;-0.28;100.00
52319;BME280;38258;51.148;14.068;2023-02-15T07:58:55;99572.97;;;0.02;100.00
52319;BME280;38258;51.148;14.068;2023-02-15T08:01:25;99544.56;;;-0.02;100.00
52319;BME280;38258;51.148;14.068;2023-02-15T08:03:53;99564.16;;;0.21;100.00
52319;BME280;38258;51.148;14.068;2023-02-15T08:06:20;99559.56;;;0.38;100.00
52319;BME280;38258;51.148;14.068;2023-02-15T08:08:47;99534.59;;;0.35;100.00
52319;BME280;38258;51.148;14.068;2023-02-15T08:11:17;99556.81;;;0.61;100.00
52319;BME280;38258;51.148;14.068;2023-02-15T08:14:01;99547.88;;;0.78;100.00
52319;BME280;38258;51.148;14.068;2023-02-15T08:16:32;99545.50;;;0.84;100.00
52319;BME280;38258;51.148;14.068;2023-02-15T08:19:01;99542.84;;;0.81;100.00
52319;BME280;38258;51.148;14.068;2023-02-15T08:21:29;99530.97;;;1.17;100.00
52319;BME280;38258;51.148;14.068;2023-02-15T08:23:57;99534.19;;;1.10;100.00
52319;BME280;38258;51.148;14.068;2023-02-15T08:26:25;99535.56;;;0.97;100.00
52319;BME280;38258;51.148;14.068;2023-02-15T08:28:52;99526.34;;;1.05;100.00
52319;BME280;38258;51.148;14.068;2023-02-15T08:31:21;99512.25;;;1.24;100.00
52319;BME280;38258;51.148;14.068;2023-02-15T08:33:49;99526.47;;;1.42;100.00
52319;BME280;38258;51.148;14.068;2023-02-15T08:36:18;99520.75;;;1.52;100.00
52319;BME280;38258;51.148;14.068;2023-02-15T08:38:46;99528.84;;;1.66;100.00
52319;BME280;38258;51.148;14.068;2023-02-15T08:41:15;99517.38;;;2.25;100.00
52319;BME280;38258;51.148;14.068;2023-02-15T08:43:43;99515.50;;;2.57;100.00
52319;BME280;38258;51.148;14.068;2023-02-15T08:46:11;99514.09;;;2.31;100.00
52319;BME280;38258;51.148;14.068;2023-02-15T08:48:39;99523.78;;;2.81;100.00
52319;BME280;38258;51.148;14.068;2023-02-15T08:51:08;99523.38;;;2.63;100.00
52319;BME280;38258;51.148;14.068;2023-02-15T08:53:37;99518.59;;;2.80;100.00
52319;BME280;38258;51.148;14.068;2023-02-15T08:56:05;99527.88;;;3.13;100.00
52319;BME280;38258;51.148;14.068;2023-02-15T08:58:33;99519.59;;;3.77;100.00
52319;BME280;38258;51.148;14.068;2023-02-15T09:01:00;99526.13;;;4.07;100.00
52319;BME280;38258;51.148;14.068;2023-02-15T09:03:28;99521.28;;;3.77;100.00
52319;BME280;38258;51.148;14.068;2023-02-15T09:06:00;99523.84;;;4.28;100.00
52319;BME280;38258;51.148;14.068;2023-02-15T09:08:28;99522.38;;;4.45;100.00
52319;BME280;38258;51.148;14.068;2023-02-15T09:11:05;99519.22;;;4.66;100.00
52319;BME280;38258;51.148;14.068;2023-02-15T09:13:32;99521.34;;;3.80;100.00
52319;BME280;38258;51.148;14.068;2023-02-15T09:16:01;99522.44;;;3.94;100.00
52319;BME280;38258;51.148;14.068;2023-02-15T09:18:29;99516.50;;;4.56;100.00
52319;BME280;38258;51.148;14.068;2023-02-15T09:20:56;99523.81;;;3.74;100.00
52319;BME280;38258;51.148;14.068;2023-02-15T09:23:24;99521.28;;;3.77;100.00
52319;BME280;38258;51.148;14.068;2023-02-15T09:25:51;99516.84;;;4.22;100.00
52319;BME280;38258;51.148;14.068;2023-02-15T09:28:18;99523.38;;;4.53;100.00
52319;BME280;38258;51.148;14.068;2023-02-15T09:30:45;99519.28;;;4.73;100.00
52319;BME280;38258;51.148;14.068;2023-02-15T09:33:11;99503.97;;;4.27;100.00
52319;BME280;38258;51.148;14.068;2023-02-15T09:35:38;99511.72;;;4.25;100.00
52319;BME280;38258;51.148;14.068;2023-02-15T09:38:05;99514.53;;;4.41;100.00
52319;BME280;38258;51.148;14.068;2023-02-15T09:40:39;99506.69;;;5.01;100.00
52319;BME280;38258;51.148;14.068;2023-02-15T09:43:25;99504.22;;;5.10;100.00
52319;BME280;38258;51.148;14.068;2023-02-15T09:46:17;99522.44;;;4.50;100.00
52319;BME280;38258;51.148;14.068;2023-02-15T09:48:52;99508.81;;;5.33;100.00
52319;BME280;38258;51.148;14.068;2023-02-15T09:51:53;99510.47;;;5.26;100.00
52319;BME280;38258;51.148;14.068;2023-02-15T09:54:37;99507.28;;;4.78;100.00
52319;BME280;38258;51.148;14.068;2023-02-15T09:57:10;99504.38;;;5.22;100.00
52319;BME280;38258;51.148;14.068;2023-02-15T09:59:45;99505.38;;;6.33;100.00
52319;BME280;38258;51.148;14.068;2023-02-15T10:02:27;99506.47;;;5.56;100.00
52319;BME280;38258;51.148;14.068;2023-02-15T10:05:11;99499.47;;;5.52;100.00
52319;BME280;38258;51.148;14.068;2023-02-15T10:08:13;99497.38;;;5.17;100.00
52319;BME280;38258;51.148;14.068;2023-02-15T10:10:55;99495.13;;;5.48;100.00
52319;BME280;38258;51.148;14.068;2023-02-15T10:13:54;99502.88;;;5.45;100.00
52319;BME280;38258;51.148;14.068;2023-02-15T10:16:34;99492.94;;;5.06;100.00
52319;BME280;38258;51.148;14.068;2023-02-15T10:19:11;99493.53;;;4.85;100.00
52319;BME280;38258;51.148;14.068;2023-02-15T10:21:50;99489.50;;;5.06;100.00
52319;BME280;38258;51.148;14.068;2023-02-15T10:24:33;99488.53;;;5.01;100.00
52319;BME280;38258;51.148;14.068;2023-02-15T10:27:11;99469.16;;;5.48;100.00
52319;BME280;38258;51.148;14.068;2023-02-15T10:29:44;99487.44;;;5.59;100.00
52319;BME280;38258;51.148;14.068;2023-02-15T10:32:21;99492.00;;;5.83;100.00
52319;BME280;38258;51.148;14.068;2023-02-15T10:34:51;99486.88;;;5.94;100.00
52319;BME280;38258;51.148;14.068;2023-02-15T10:37:32;99494.03;;;5.26;100.00
52319;BME280;38258;51.148;14.068;2023-02-15T10:40:05;99479.03;;;5.88;100.00
52319;BME280;38258;51.148;14.068;2023-02-15T10:42:44;99481.84;;;6.10;100.00
52319;BME280;38258;51.148;14.068;2023-02-15T10:45:23;99477.31;;;5.85;100.00
52319;BME280;38258;51.148;14.068;2023-02-15T10:48:11;99479.06;;;5.92;100.00
52319;BME280;38258;51.148;14.068;2023-02-15T10:50:47;99472.13;;;5.91;100.00
52319;BME280;38258;51.148;14.068;2023-02-15T10:53:38;99473.38;;;5.35;100.00
52319;BME280;38258;51.148;14.068;2023-02-15T10:56:16;99472.59;;;5.44;100.00
52319;BME280;38258;51.148;14.068;2023-02-15T10:58:54;99471.88;;;5.60;100.00
52319;BME280;38258;51.148;14.068;2023-02-15T11:01:34;99458.53;;;6.20;100.00
52319;BME280;38258;51.148;14.068;2023-02-15T11:04:34;99454.44;;;5.47;100.00
52319;BME280;38258;51.148;14.068;2023-02-15T11:07:10;99452.75;;;5.47;100.00
52319;BME280;38258;51.148;14.068;2023-02-15T11:09:42;99451.13;;;5.63;100.00
52319;BME280;38258;51.148;14.068;2023-02-15T11:12:13;99440.69;;;5.54;100.00
52319;BME280;38258;51.148;14.068;2023-02-15T11:14:46;99442.19;;;5.30;100.00
52319;BME280;38258;51.148;14.068;2023-02-15T11:17:21;99442.03;;;5.15;100.00
52319;BME280;38258;51.148;14.068;2023-02-15T11:19:55;99432.22;;;4.86;100.00
52319;BME280;38258;51.148;14.068;2023-02-15T11:22:23;99441.03;;;5.03;100.00
52319;BME280;38258;51.148;14.068;2023-02-15T11:24:51;99422.13;;;4.39;100.00
52319;BME280;38258;51.148;14.068;2023-02-15T11:27:21;99431.25;;;4.80;100.00
52319;BME280;38258;51.148;14.068;2023-02-15T11:29:57;99431.13;;;4.66;100.00
52319;BME280;38258;51.148;14.068;2023-02-15T11:32:28;99428.38;;;5.34;100.00
52319;BME280;38258;51.148;14.068;2023-02-15T11:35:00;99423.72;;;5.01;100.00
52319;BME280;38258;51.148;14.068;2023-02-15T11:37:34;99429.41;;;5.50;100.00
52319;BME280;38258;51.148;14.068;2023-02-15T11:40:03;99434.50;;;5.40;100.00
52319;BME280;38258;51.148;14.068;2023-02-15T11:42:41;99423.06;;;5.17;100.00
52319;BME280;38258;51.148;14.068;2023-02-15T11:45:20;99414.53;;;5.32;100.00
52319;BME280;38258;51.148;14.068;2023-02-15T11:47:50;99426.94;;;5.66;100.00
52319;BME280;38258;51.148;14.068;2023-02-15T11:50:21;99412.94;;;5.50;100.00
52319;BME280;38258;51.148;14.068;2023-02-15T11:52:49;99421.66;;;5.57;100.00
52319;BME280;38258;51.148;14.068;2023-02-15T11:55:19;99411.09;;;5.33;100.00
52319;BME280;38258;51.148;14.068;2023-02-15T11:57:51;99415.69;;;5.64;100.00
52319;BME280;38258;51.148;14.068;2023-02-15T12:00:25;99407.88;;;5.62;100.00
52319;BME280;38258;51.148;14.068;2023-02-15T12:02:58;99404.28;;;5.48;100.00
52319;BME280;38258;51.148;14.068;2023-02-15T12:05:25;99395.66;;;5.49;100.00
52319;BME280;38258;51.148;14.068;2023-02-15T12:07:55;99411.50;;;5.85;100.00
52319;BME280;38258;51.148;14.068;2023-02-15T12:10:24;99399.28;;;5.70;100.00
52319;BME280;38258;51.148;14.068;2023-02-15T12:13:09;99413.44;;;5.07;100.00
52319;BME280;38258;51.148;14.068;2023-02-15T12:15:37;99397.00;;;5.08;100.00
52319;BME280;38258;51.148;14.068;2023-02-15T12:18:19;99409.41;;;5.40;100.00
52319;BME280;38258;51.148;14.068;2023-02-15T12:20:46;99399.13;;;5.49;100.00
52319;BME280;38258;51.148;14.068;2023-02-15T12:23:15;99401.97;;;4.88;100.00
52319;BME280;38258;51.148;14.068;2023-02-15T12:25:49;99387.97;;;5.60;100.00
52319;BME280;38258;51.148;14.068;2023-02-15T12:28:24;99397.91;;;5.12;100.00
52319;BME280;38258;51.148;14.068;2023-02-15T12:30:53;99385.34;;;5.55;100.00
52319;BME280;38258;51.148;14.068;2023-02-15T12:33:27;99387.47;;;5.05;100.00
52319;BME280;38258;51.148;14.068;2023-02-15T12:35:59;99367.63;;;5.09;100.00
52319;BME280;38258;51.148;14.068;2023-02-15T12:38:29;99381.53;;;5.19;100.00
52319;BME280;38258;51.148;14.068;2023-02-15T12:41:00;99377.94;;;5.04;100.00
52319;BME280;38258;51.148;14.068;2023-02-15T12:43:31;99376.44;;;5.25;100.00
52319;BME280;38258;51.148;14.068;2023-02-15T12:46:21;99375.06;;;4.75;100.00
52319;BME280;38258;51.148;14.068;2023-02-15T12:49:05;99335.56;;;5.01;100.00
52319;BME280;38258;51.148;14.068;2023-02-15T12:51:43;99364.97;;;5.04;100.00
52319;BME280;38258;51.148;14.068;2023-02-15T12:54:29;99362.78;;;5.46;100.00
52319;BME280;38258;51.148;14.068;2023-02-15T12:56:57;99352.59;;;5.76;100.00
52319;BME280;38258;51.148;14.068;2023-02-15T12:59:24;99360.56;;;6.02;100.00
52319;BME280;38258;51.148;14.068;2023-02-15T13:01:51;99355.28;;;5.91;100.00
52319;BME280;38258;51.148;14.068;2023-02-15T13:04:25;99350.53;;;5.31;100.00
52319;BME280;38258;51.148;14.068;2023-02-15T13:06:54;99340.44;;;5.70;100.00
52319;BME280;38258;51.148;14.068;2023-02-15T13:09:26;99354.19;;;5.57;100.00
52319;BME280;38258;51.148;14.068;2023-02-15T13:12:09;99331.06;;;5.91;100.00
52319;BME280;38258;51.148;14.068;2023-02-15T13:17:16;99344.72;;;5.60;100.00
52319;BME280;38258;51.148;14.068;2023-02-15T13:19:46;99346.66;;;5.91;100.00